Time;durP1;ratioP1;P1;durP2;ratioP2;P2;SDS_P1;SDS_P2;PMS_P1;PMS_P2;Temp;Humidity;BMP_temperature;BMP_pressure;BME280_temperature;BME280_humidity;BME280_pressure;Samples;Min_cycle;Max_cycle;Signal;HPM_P1;HPM_P2
2023/09/16 00:01:13;;;;;;;;;;;;;;;;;;5004232;28;20346;-80
2023/09/16 00:03:39;;;;;;;;;;;;;;;;;;5015792;28;19964;-79
2023/09/16 00:06:05;;;;;;;;;;;;;;;;;;5002953;28;19924;-79
2023/09/16 00:08:32;;;;;;;;;;;;;;;;;;5009254;28;19964;-80
2023/09/16 00:10:58;;;;;;;;;;;;;;;;;;5006441;28;20414;-81
2023/09/16 00:13:24;;;;;;;;;;;;;;;;;;5005918;28;20028;-80
2023/09/16 00:15:50;;;;;;;;;;;;;;;;;;5009164;28;19909;-78
2023/09/16 00:18:16;;;;;;;;;;;;;;;;;;5003212;28;19952;-80
2023/09/16 00:20:42;;;;;;;;;;;;;;;;;;5008400;28;19920;-81
2023/09/16 00:23:09;;;;;;;;;;;;;;;;;;5020910;28;19967;-80
2023/09/16 00:25:35;;;;;;;;;;;;;;;;;;5001534;28;19917;-78
2023/09/16 00:28:01;;;;;;;;;;;;;;;;;;5009987;28;20071;-80
2023/09/16 00:30:27;;;;;;;;;;;;;;;;;;5014896;28;20421;-80
2023/09/16 00:32:53;;;;;;;;;;;;;;;;;;5001741;28;19909;-82
2023/09/16 00:35:19;;;;;;;;;;;;;;;;;;5011377;28;20074;-80
2023/09/16 00:37:46;;;;;;;;;;;;;;;;;;5025114;28;20254;-80
2023/09/16 00:40:13;;;;;;;;;;;;;;;;;;5002045;28;20266;-83
2023/09/16 00:42:40;;;;;;;;;;;;;;;;;;5022208;28;19909;-81
2023/09/16 00:45:06;;;;;;;;;;;;;;;;;;5007651;28;19913;-80
2023/09/16 00:47:33;;;;;;;;;;;;;;;;;;5001927;28;20265;-82
2023/09/16 00:49:59;;;;;;;;;;;;;;;;;;5012401;28;19917;-80
2023/09/16 00:52:26;;;;;;;;;;;;;;;;;;5009355;28;19917;-80
2023/09/16 00:54:52;;;;;;;;;;;;;;;;;;5003268;28;19975;-81
2023/09/16 00:57:18;;;;;;;;;;;;;;;;;;5000903;28;19936;-81
2023/09/16 00:59:43;;;;;;;;;;;;;;;;;;5002392;28;19913;-83
2023/09/16 01:02:09;;;;;;;;;;;;;;;;;;5007168;28;19920;-80
2023/09/16 01:04:35;;;;;;;;;;;;;;;;;;5008177;28;19913;-80
2023/09/16 01:07:01;;;;;;;;;;;;;;;;;;5010680;28;20313;-83
2023/09/16 01:09:27;;;;;;;;;;;;;;;;;;4996382;28;19972;-80
2023/09/16 01:11:53;;;;;;;;;;;;;;;;;;5001303;28;20027;-80
2023/09/16 01:14:19;;;;;;;;;;;;;;;;;;4997621;28;20273;-80
2023/09/16 01:16:45;;;;;;;;;;;;;;;;;;4999711;28;20259;-80
2023/09/16 01:19:11;;;;;;;;;;;;;;;;;;5007232;28;19936;-80
2023/09/16 01:21:37;;;;;;;;;;;;;;;;;;5006607;28;19940;-80
2023/09/16 01:24:03;;;;;;;;;;;;;;;;;;5009129;28;19956;-82
2023/09/16 01:26:29;;;;;;;;;;;;;;;;;;5000893;28;20392;-81
2023/09/16 01:28:55;;;;;;;;;;;;;;;;;;5000802;28;20332;-83
2023/09/16 01:31:21;;;;;;;;;;;;;;;;;;5008331;28;20382;-81
2023/09/16 01:33:47;;;;;;;;;;;;;;;;;;5000784;28;19913;-79
2023/09/16 01:36:13;;;;;;;;;;;;;;;;;;4999720;28;19914;-79
2023/09/16 01:38:39;;;;;;;;;;;;;;;;;;5009351;28;20000;-81
2023/09/16 01:41:04;;;;;;;;;;;;;;;;;;5006165;28;20008;-79
2023/09/16 01:43:31;;;;;;;;;;;;;;;;;;5001069;28;20273;-79
2023/09/16 01:45:57;;;;;;;;;;;;;;;;;;5005149;28;19913;-80
2023/09/16 01:48:23;;;;;;;;;;;;;;;;;;4996581;28;19968;-80
2023/09/16 01:50:49;;;;;;;;;;;;;;;;;;5008929;28;20320;-80
2023/09/16 01:53:16;;;;;;;;;;;;;;;;;;5009355;28;20588;-79
2023/09/16 01:55:42;;;;;;;;;;;;;;;;;;5024977;28;20288;-81
2023/09/16 01:58:08;;;;;;;;;;;;;;;;;;4997671;28;19924;-79
2023/09/16 02:00:34;;;;;;;;;;;;;;;;;;5009777;28;19913;-81
2023/09/16 02:03:00;;;;;;;;;;;;;;;;;;5014307;28;19910;-80
2023/09/16 02:05:26;;;;;;;;;;;;;;;;;;5012943;28;19909;-79
2023/09/16 02:07:52;;;;;;;;;;;;;;;;;;5019589;28;19909;-81
2023/09/16 02:10:17;;;;;;;;;;;;;;;;;;5010757;28;19921;-79
2023/09/16 02:12:43;;;;;;;;;;;;;;;;;;5020565;28;19940;-80
2023/09/16 02:15:09;;;;;;;;;;;;;;;;;;5013065;28;20099;-79
2023/09/16 02:17:35;;;;;;;;;;;;;;;;;;4996653;28;19916;-79
2023/09/16 02:20:01;;;;;;;;;;;;;;;;;;5014516;28;20000;-80
2023/09/16 02:22:27;;;;;;;;;;;;;;;;;;4999145;28;20405;-81
2023/09/16 02:24:53;;;;;;;;;;;;;;;;;;5003094;28;19917;-80
2023/09/16 02:27:19;;;;;;;;;;;;;;;;;;5008116;28;19913;-79
2023/09/16 02:29:48;;;;;;;;;;;;;;;;;;5011274;28;19928;-79
2023/09/16 02:32:13;;;;;;;;;;;;;;;;;;5012634;28;19909;-79
2023/09/16 02:34:39;;;;;;;;;;;;;;;;;;5011601;28;19913;-79
2023/09/16 02:37:05;;;;;;;;;;;;;;;;;;5020403;28;19917;-79
2023/09/16 02:39:31;;;;;;;;;;;;;;;;;;5011667;28;19993;-80
2023/09/16 02:41:57;;;;;;;;;;;;;;;;;;5012564;28;19971;-79
2023/09/16 02:44:23;;;;;;;;;;;;;;;;;;5003491;28;20032;-81
2023/09/16 02:46:49;;;;;;;;;;;;;;;;;;5000797;28;19972;-80
2023/09/16 02:49:15;;;;;;;;;;;;;;;;;;5009803;28;20261;-80
2023/09/16 02:51:41;;;;;;;;;;;;;;;;;;5014766;28;19913;-80
2023/09/16 02:54:07;;;;;;;;;;;;;;;;;;5015217;28;19956;-80
2023/09/16 02:56:33;;;;;;;;;;;;;;;;;;5025723;28;19924;-80
2023/09/16 02:59:00;;;;;;;;;;;;;;;;;;5008949;28;19921;-80
2023/09/16 03:01:26;;;;;;;;;;;;;;;;;;5012567;28;19917;-80
2023/09/16 03:03:52;;;;;;;;;;;;;;;;;;5007462;28;19989;-82
2023/09/16 03:06:18;;;;;;;;;;;;;;;;;;5015911;28;19935;-80
2023/09/16 03:08:44;;;;;;;;;;;;;;;;;;5011616;28;19996;-81
2023/09/16 03:11:10;;;;;;;;;;;;;;;;;;5007323;28;19910;-79
2023/09/16 03:13:36;;;;;;;;;;;;;;;;;;5014849;28;19959;-79
2023/09/16 03:16:02;;;;;;;;;;;;;;;;;;5014348;28;19917;-81
2023/09/16 03:18:28;;;;;;;;;;;;;;;;;;5012501;28;19913;-79
2023/09/16 03:20:54;;;;;;;;;;;;;;;;;;5010006;28;19913;-79
2023/09/16 03:23:20;;;;;;;;;;;;;;;;;;5011882;28;19964;-80
2023/09/16 03:25:45;;;;;;;;;;;;;;;;;;5007786;28;20023;-80
2023/09/16 03:28:11;;;;;;;;;;;;;;;;;;5011644;28;19919;-80
2023/09/16 03:30:37;;;;;;;;;;;;;;;;;;5010485;28;19909;-79
2023/09/16 03:33:03;;;;;;;;;;;;;;;;;;4994466;28;20160;-79
2023/09/16 03:35:30;;;;;;;;;;;;;;;;;;5003990;28;19909;-79
2023/09/16 03:37:56;;;;;;;;;;;;;;;;;;5011433;28;19913;-79
2023/09/16 03:40:21;;;;;;;;;;;;;;;;;;5007544;28;19921;-83
2023/09/16 03:42:47;;;;;;;;;;;;;;;;;;5019384;28;19910;-80
2023/09/16 03:45:13;;;;;;;;;;;;;;;;;;5000518;28;19963;-79
2023/09/16 03:47:39;;;;;;;;;;;;;;;;;;5000245;28;19933;-80
2023/09/16 03:50:05;;;;;;;;;;;;;;;;;;5010198;28;19999;-80
2023/09/16 03:52:31;;;;;;;;;;;;;;;;;;4995407;28;20068;-80
2023/09/16 03:54:57;;;;;;;;;;;;;;;;;;5005565;28;20432;-80
2023/09/16 03:57:24;;;;;;;;;;;;;;;;;;5018244;28;19949;-81
2023/09/16 03:59:50;;;;;;;;;;;;;;;;;;5010118;28;19976;-79
2023/09/16 04:02:15;;;;;;;;;;;;;;;;;;5020229;28;19979;-80
2023/09/16 04:04:41;;;;;;;;;;;;;;;;;;5008744;28;19916;-80
2023/09/16 04:07:07;;;;;;;;;;;;;;;;;;5008070;28;19920;-80
2023/09/16 04:09:33;;;;;;;;;;;;;;;;;;5011537;28;19972;-79
2023/09/16 04:11:59;;;;;;;;;;;;;;;;;;5014323;28;19914;-81
2023/09/16 04:14:25;;;;;;;;;;;;;;;;;;4999446;28;19917;-80
2023/09/16 04:16:51;;;;;;;;;;;;;;;;;;5011157;28;20337;-81
2023/09/16 04:19:17;;;;;;;;;;;;;;;;;;5001563;28;19921;-80
2023/09/16 04:21:43;;;;;;;;;;;;;;;;;;5016296;28;19952;-81
2023/09/16 04:24:11;;;;;;;;;;;;;;;;;;5000089;28;20401;-80
2023/09/16 04:26:37;;;;;;;;;;;;;;;;;;5008843;28;20012;-79
2023/09/16 04:29:03;;;;;;;;;;;;;;;;;;5007782;28;20012;-82
2023/09/16 04:31:30;;;;;;;;;;;;;;;;;;5010283;28;19914;-82
2023/09/16 04:33:55;;;;;;;;;;;;;;;;;;5006915;28;20385;-80
2023/09/16 04:36:24;;;;;;;;;;;;;;;;;;5014092;28;19916;-80
2023/09/16 04:38:50;;;;;;;;;;;;;;;;;;5006455;28;19987;-79
2023/09/16 04:41:16;;;;;;;;;;;;;;;;;;5006606;28;19949;-80
2023/09/16 04:43:43;;;;;;;;;;;;;;;;;;5021877;28;20516;-80
2023/09/16 04:46:09;;;;;;;;;;;;;;;;;;5014917;28;20233;-80
2023/09/16 04:48:35;;;;;;;;;;;;;;;;;;5009006;28;19909;-79
2023/09/16 04:51:02;;;;;;;;;;;;;;;;;;4997034;28;19919;-80
2023/09/16 04:53:28;;;;;;;;;;;;;;;;;;5005950;28;19920;-82
2023/09/16 04:55:55;;;;;;;;;;;;;;;;;;5010394;28;20004;-81
2023/09/16 04:58:21;;;;;;;;;;;;;;;;;;5002937;28;19913;-80
2023/09/16 05:00:49;;;;;;;;;;;;;;;;;;4991462;28;19917;-80
2023/09/16 05:03:14;;;;;;;;;;;;;;;;;;5004064;28;19909;-80
2023/09/16 05:05:40;;;;;;;;;;;;;;;;;;5007183;28;19932;-80
2023/09/16 05:08:06;;;;;;;;;;;;;;;;;;5009503;28;19964;-80
2023/09/16 05:10:32;;;;;;;;;;;;;;;;;;5006478;28;19913;-80
2023/09/16 05:12:58;;;;;;;;;;;;;;;;;;5005814;28;19928;-81
2023/09/16 05:15:24;;;;;;;;;;;;;;;;;;5008378;28;19917;-81
2023/09/16 05:17:50;;;;;;;;;;;;;;;;;;5011058;28;19917;-81
2023/09/16 05:20:16;;;;;;;;;;;;;;;;;;5004930;28;20293;-80
2023/09/16 05:22:42;;;;;;;;;;;;;;;;;;5006789;28;20006;-81
2023/09/16 05:25:08;;;;;;;;;;;;;;;;;;5010242;28;19928;-81
2023/09/16 05:27:34;;;;;;;;;;;;;;;;;;5008210;28;19913;-81
2023/09/16 05:30:01;;;;;;;;;;;;;;;;;;5008994;28;19929;-80
2023/09/16 05:32:28;;;;;;;;;;;;;;;;;;5009272;28;19924;-81
2023/09/16 05:34:54;;;;;;;;;;;;;;;;;;5003978;28;19925;-81
2023/09/16 05:37:20;;;;;;;;;;;;;;;;;;5010951;28;19913;-80
2023/09/16 05:39:45;;;;;;;;;;;;;;;;;;5006763;28;19956;-81
2023/09/16 05:42:11;;;;;;;;;;;;;;;;;;5008241;28;19914;-80
2023/09/16 05:44:37;;;;;;;;;;;;;;;;;;5002411;28;20540;-80
2023/09/16 05:47:03;;;;;;;;;;;;;;;;;;5001855;28;20469;-80
2023/09/16 05:49:29;;;;;;;;;;;;;;;;;;5000548;28;19956;-80
2023/09/16 05:51:55;;;;;;;;;;;;;;;;;;4999597;28;20246;-82
2023/09/16 05:54:21;;;;;;;;;;;;;;;;;;5009462;28;19976;-79
2023/09/16 05:56:49;;;;;;;;;;;;;;;;;;5003163;28;20329;-79
2023/09/16 05:59:15;;;;;;;;;;;;;;;;;;5002367;28;19924;-79
2023/09/16 06:01:41;;;;;;;;;;;;;;;;;;5005051;28;19924;-79
2023/09/16 06:04:10;;;;;;;;;;;;;;;;;;5018823;28;19921;-80
2023/09/16 06:06:36;;;;;;;;;;;;;;;;;;5003216;28;19917;-80
2023/09/16 06:09:05;;;;;;;;;;;;;;;;;;5003364;28;20396;-79
2023/09/16 06:11:31;;;;;;;;;;;;;;;;;;5000449;28;19924;-79
2023/09/16 06:13:57;;;;;;;;;;;;;;;;;;5021371;28;19996;-79
2023/09/16 06:16:22;;;;;;;;;;;;;;;;;;5006470;28;19941;-80
2023/09/16 06:18:48;;;;;;;;;;;;;;;;;;5008257;28;20269;-79
2023/09/16 06:21:15;;;;;;;;;;;;;;;;;;5003947;28;19936;-79
2023/09/16 06:23:41;;;;;;;;;;;;;;;;;;5004900;28;19996;-79
2023/09/16 06:26:07;;;;;;;;;;;;;;;;;;5004568;28;20008;-79
2023/09/16 06:28:33;;;;;;;;;;;;;;;;;;5005416;28;19961;-80
2023/09/16 06:30:59;;;;;;;;;;;;;;;;;;5009975;28;20295;-80
2023/09/16 06:33:25;;;;;;;;;;;;;;;;;;5010246;28;19921;-80
2023/09/16 06:35:50;;;;;;;;;;;;;;;;;;5004589;28;20576;-79
2023/09/16 06:38:27;;;;;;;;;;;;;;;;;;5005714;28;19996;-81
2023/09/16 06:40:54;;;;;;;;;;;;;;;;;;5007827;28;19913;-82
2023/09/16 06:43:26;;;;;;;;;;;;;;;;;;5009131;28;19953;-81
2023/09/16 06:45:53;;;;;;;;;;;;;;;;;;5015123;28;19970;-80
2023/09/16 06:48:19;;;;;;;;;;;;;;;;;;5008893;28;19913;-78
2023/09/16 06:50:45;;;;;;;;;;;;;;;;;;5005819;28;19933;-78
2023/09/16 06:53:11;;;;;;;;;;;;;;;;;;5007493;28;20230;-79
2023/09/16 06:55:38;;;;;;;;;;;;;;;;;;5005978;28;19924;-79
2023/09/16 06:58:06;;;;;;;;;;;;;;;;;;5013959;28;19920;-79
2023/09/16 07:00:32;;;;;;;;;;;;;;;;;;5015219;28;19917;-78
2023/09/16 07:02:58;;;;;;;;;;;;;;;;;;5009585;28;19909;-80
2023/09/16 07:05:25;;;;;;;;;;;;;;;;;;5008314;28;19917;-80
2023/09/16 07:07:54;;;;;;;;;;;;;;;;;;5005789;28;19910;-78
2023/09/16 07:10:21;;;;;;;;;;;;;;;;;;5006669;28;20016;-80
2023/09/16 07:12:46;;;;;;;;;;;;;;;;;;5003399;28;19976;-79
2023/09/16 07:15:12;;;;;;;;;;;;;;;;;;5017760;28;20284;-79
2023/09/16 07:17:38;;;;;;;;;;;;;;;;;;5022649;28;19936;-81
2023/09/16 07:20:04;;;;;;;;;;;;;;;;;;5009550;28;19917;-80
2023/09/16 07:22:30;;;;;;;;;;;;;;;;;;5013523;28;19935;-78
2023/09/16 07:24:56;;;;;;;;;;;;;;;;;;5011818;28;19931;-79
2023/09/16 07:27:22;;;;;;;;;;;;;;;;;;5014486;28;19913;-82
2023/09/16 07:29:48;;;;;;;;;;;;;;;;;;5012120;28;19952;-79
2023/09/16 07:32:14;;;;;;;;;;;;;;;;;;5016504;28;19992;-79
2023/09/16 07:34:39;;;;;;;;;;;;;;;;;;5013703;28;19913;-79
2023/09/16 07:37:05;;;;;;;;;;;;;;;;;;5008528;28;20485;-79
2023/09/16 07:39:31;;;;;;;;;;;;;;;;;;5015626;28;19956;-79
2023/09/16 07:41:57;;;;;;;;;;;;;;;;;;5006666;28;20356;-80
2023/09/16 07:44:23;;;;;;;;;;;;;;;;;;5010650;28;20178;-79
2023/09/16 07:46:50;;;;;;;;;;;;;;;;;;4999143;28;20012;-80
2023/09/16 07:49:16;;;;;;;;;;;;;;;;;;5016379;28;19923;-77
2023/09/16 07:51:46;;;;;;;;;;;;;;;;;;5010500;28;20411;-79
2023/09/16 07:54:12;;;;;;;;;;;;;;;;;;5010116;28;20361;-78
2023/09/16 07:56:38;;;;;;;;;;;;;;;;;;5004409;28;20102;-78
2023/09/16 07:59:04;;;;;;;;;;;;;;;;;;5015154;28;19978;-79
2023/09/16 08:01:30;;;;;;;;;;;;;;;;;;5000598;28;19917;-78
2023/09/16 08:03:57;;;;;;;;;;;;;;;;;;5008220;28;19940;-78
2023/09/16 08:06:23;;;;;;;;;;;;;;;;;;4998586;28;20258;-80
2023/09/16 08:08:49;;;;;;;;;;;;;;;;;;5025549;28;19924;-78
2023/09/16 08:11:15;;;;;;;;;;;;;;;;;;5005516;28;19917;-80
2023/09/16 08:13:41;;;;;;;;;;;;;;;;;;5028281;28;19914;-78
2023/09/16 08:16:07;;;;;;;;;;;;;;;;;;5009916;28;19961;-79
2023/09/16 08:18:32;;;;;;;;;;;;;;;;;;5013415;28;19997;-79
2023/09/16 08:20:58;;;;;;;;;;;;;;;;;;5004107;28;20318;-80
2023/09/16 08:23:24;;;;;;;;;;;;;;;;;;5012223;28;19909;-80
2023/09/16 08:25:50;;;;;;;;;;;;;;;;;;5001931;28;19909;-78
2023/09/16 08:28:17;;;;;;;;;;;;;;;;;;5018411;28;19923;-77
2023/09/16 08:30:43;;;;;;;;;;;;;;;;;;5012056;28;20588;-76
2023/09/16 08:33:09;;;;;;;;;;;;;;;;;;5015282;28;19996;-78
2023/09/16 08:35:35;;;;;;;;;;;;;;;;;;5023049;28;19909;-78
2023/09/16 08:38:02;;;;;;;;;;;;;;;;;;5014812;28;19910;-80
2023/09/16 08:40:31;;;;;;;;;;;;;;;;;;5012938;28;19909;-77
2023/09/16 08:42:58;;;;;;;;;;;;;;;;;;5012298;28;19978;-76
2023/09/16 08:45:24;;;;;;;;;;;;;;;;;;5012580;28;19942;-79
2023/09/16 08:47:50;;;;;;;;;;;;;;;;;;5010731;28;19917;-77
2023/09/16 08:50:17;;;;;;;;;;;;;;;;;;5041276;28;19925;-80
2023/09/16 08:52:43;;;;;;;;;;;;;;;;;;5036263;28;20006;-80
2023/09/16 08:55:11;;;;;;;;;;;;;;;;;;5035024;28;22498;-77
2023/09/16 08:57:37;;;;;;;;;;;;;;;;;;5014112;28;19975;-78
2023/09/16 09:00:03;;;;;;;;;;;;;;;;;;5017485;28;19921;-78
2023/09/16 09:02:29;;;;;;;;;;;;;;;;;;5022470;28;19944;-78
2023/09/16 09:04:55;;;;;;;;;;;;;;;;;;5011672;28;19940;-77
2023/09/16 09:07:21;;;;;;;;;;;;;;;;;;5013051;28;19936;-78
2023/09/16 09:09:47;;;;;;;;;;;;;;;;;;5001279;28;19913;-77
2023/09/16 09:12:13;;;;;;;;;;;;;;;;;;5014006;28;19940;-77
2023/09/16 09:14:39;;;;;;;;;;;;;;;;;;5011803;28;19988;-76
2023/09/16 09:17:05;;;;;;;;;;;;;;;;;;5011738;28;20388;-80
2023/09/16 09:19:30;;;;;;;;;;;;;;;;;;5011612;28;20372;-77
2023/09/16 09:21:57;;;;;;;;;;;;;;;;;;5025918;28;19913;-77
2023/09/16 09:24:23;;;;;;;;;;;;;;;;;;5007336;28;20310;-78
2023/09/16 09:26:49;;;;;;;;;;;;;;;;;;5011893;28;19920;-76
2023/09/16 09:29:15;;;;;;;;;;;;;;;;;;5013842;28;19917;-76
2023/09/16 09:31:41;;;;;;;;;;;;;;;;;;5022971;28;19909;-76
2023/09/16 09:34:06;;;;;;;;;;;;;;;;;;5005180;28;20000;-78
2023/09/16 09:36:33;;;;;;;;;;;;;;;;;;5012818;28;19917;-76
2023/09/16 09:38:59;;;;;;;;;;;;;;;;;;5012035;28;19924;-76
2023/09/16 09:41:25;;;;;;;;;;;;;;;;;;5010472;28;20325;-76
2023/09/16 09:43:53;;;;;;;;;;;;;;;;;;5007816;28;20385;-76
2023/09/16 09:46:18;;;;;;;;;;;;;;;;;;5007566;28;20004;-77
2023/09/16 09:48:44;;;;;;;;;;;;;;;;;;5012150;28;20012;-78
2023/09/16 09:51:10;;;;;;;;;;;;;;;;;;5011354;28;19909;-77
2023/09/16 09:53:36;;;;;;;;;;;;;;;;;;5006772;28;20004;-76
2023/09/16 09:56:02;;;;;;;;;;;;;;;;;;5007146;28;20008;-77
2023/09/16 09:58:28;;;;;;;;;;;;;;;;;;5007052;28;20035;-75
2023/09/16 10:00:54;;;;;;;;;;;;;;;;;;5010801;28;19917;-77
2023/09/16 10:03:20;;;;;;;;;;;;;;;;;;5008619;28;19912;-78
2023/09/16 10:05:46;;;;;;;;;;;;;;;;;;4998688;28;19945;-79
2023/09/16 10:08:13;;;;;;;;;;;;;;;;;;5001779;28;19910;-79
2023/09/16 10:10:39;;;;;;;;;;;;;;;;;;5005727;28;19924;-78
2023/09/16 10:13:05;;;;;;;;;;;;;;;;;;5008179;28;19913;-76
2023/09/16 10:15:31;;;;;;;;;;;;;;;;;;5007138;28;19910;-77
2023/09/16 10:17:57;;;;;;;;;;;;;;;;;;4993878;28;19928;-77
2023/09/16 10:20:22;;;;;;;;;;;;;;;;;;4989820;28;19939;-77
2023/09/16 10:22:48;;;;;;;;;;;;;;;;;;5003802;28;19913;-79
2023/09/16 10:25:14;;;;;;;;;;;;;;;;;;4996854;28;19913;-81
2023/09/16 10:27:40;;;;;;;;;;;;;;;;;;5022962;28;19913;-78
2023/09/16 10:30:06;;;;;;;;;;;;;;;;;;5001841;28;19939;-79
2023/09/16 10:32:32;;;;;;;;;;;;;;;;;;5003359;28;19917;-76
2023/09/16 10:35:03;;;;;;;;;;;;;;;;;;5002347;28;19913;-78
2023/09/16 10:37:29;;;;;;;;;;;;;;;;;;5024804;28;20027;-77
2023/09/16 10:39:55;;;;;;;;;;;;;;;;;;5025382;28;20376;-77
2023/09/16 10:42:21;;;;;;;;;;;;;;;;;;5006127;28;19916;-81
2023/09/16 10:44:47;;;;;;;;;;;;;;;;;;5006973;28;20274;-77
2023/09/16 10:47:13;;;;;;;;;;;;;;;;;;5007936;28;19952;-78
2023/09/16 10:49:39;;;;;;;;;;;;;;;;;;5012803;28;20282;-82
2023/09/16 10:52:05;;;;;;;;;;;;;;;;;;5005605;28;19913;-81
2023/09/16 10:54:33;;;;;;;;;;;;;;;;;;5007935;28;19964;-82
2023/09/16 10:57:00;;;;;;;;;;;;;;;;;;5027080;28;19962;-80
2023/09/16 10:59:27;;;;;;;;;;;;;;;;;;5008349;28;20626;-81
2023/09/16 11:01:57;;;;;;;;;;;;;;;;;;5005279;28;19959;-81
2023/09/16 11:04:24;;;;;;;;;;;;;;;;;;5005278;28;19914;-81
2023/09/16 11:06:53;;;;;;;;;;;;;;;;;;5005643;28;19949;-79
2023/09/16 11:09:20;;;;;;;;;;;;;;;;;;5016030;28;20212;-81
2023/09/16 11:11:46;;;;;;;;;;;;;;;;;;5032115;28;19909;-81
2023/09/16 11:14:15;;;;;;;;;;;;;;;;;;5007301;28;19921;-85
2023/09/16 11:16:41;;;;;;;;;;;;;;;;;;5033527;28;19940;-83
2023/09/16 11:19:08;;;;;;;;;;;;;;;;;;5016341;28;19921;-85
2023/09/16 11:21:34;;;;;;;;;;;;;;;;;;5013843;28;19919;-83
2023/09/16 11:24:00;;;;;;;;;;;;;;;;;;5014988;28;19991;-85
2023/09/16 11:26:27;;;;;;;;;;;;;;;;;;5018982;28;19918;-82
2023/09/16 11:28:54;;;;;;;;;;;;;;;;;;5015663;28;20338;-86
2023/09/16 11:31:20;;;;;;;;;;;;;;;;;;5009272;28;20389;-84
2023/09/16 11:33:47;;;;;;;;;;;;;;;;;;5020605;28;20000;-81
2023/09/16 11:36:14;;;;;;;;;;;;;;;;;;4999251;28;19965;-85
2023/09/16 11:38:40;;;;;;;;;;;;;;;;;;5002994;28;19921;-86
2023/09/16 11:41:09;;;;;;;;;;;;;;;;;;5003655;28;19952;-84
2023/09/16 11:43:36;;;;;;;;;;;;;;;;;;5011679;28;19919;-83
2023/09/16 11:46:02;;;;;;;;;;;;;;;;;;5007823;28;19917;-81
2023/09/16 11:48:29;;;;;;;;;;;;;;;;;;5011655;28;19917;-83
2023/09/16 11:50:55;;;;;;;;;;;;;;;;;;5002195;28;19909;-83
2023/09/16 11:53:23;;;;;;;;;;;;;;;;;;5011625;28;19920;-85
2023/09/16 11:55:49;;;;;;;;;;;;;;;;;;5011517;28;19971;-84
2023/09/16 11:58:15;;;;;;;;;;;;;;;;;;5009646;28;19977;-84
2023/09/16 12:00:41;;;;;;;;;;;;;;;;;;5027038;28;19952;-81
2023/09/16 12:03:12;;;;;;;;;;;;;;;;;;5003992;28;19909;-83
2023/09/16 12:05:38;;;;;;;;;;;;;;;;;;5012411;28;19951;-83
2023/09/16 12:08:04;;;;;;;;;;;;;;;;;;5011502;28;19988;-82
2023/09/16 12:10:31;;;;;;;;;;;;;;;;;;5006048;28;19920;-80
2023/09/16 12:13:00;;;;;;;;;;;;;;;;;;5005972;28;19962;-86
2023/09/16 12:15:27;;;;;;;;;;;;;;;;;;5006388;28;20392;-83
2023/09/16 12:17:54;;;;;;;;;;;;;;;;;;5009679;28;19963;-85
2023/09/16 12:20:20;;;;;;;;;;;;;;;;;;5004195;28;20181;-80
2023/09/16 12:22:48;;;;;;;;;;;;;;;;;;5011481;28;20012;-86
2023/09/16 12:25:16;;;;;;;;;;;;;;;;;;5011593;28;19913;-84
2023/09/16 12:27:42;;;;;;;;;;;;;;;;;;5013765;28;19909;-85
2023/09/16 12:30:08;;;;;;;;;;;;;;;;;;5007103;28;19920;-84
2023/09/16 12:32:35;;;;;;;;;;;;;;;;;;5007803;28;20325;-82
2023/09/16 12:35:01;;;;;;;;;;;;;;;;;;5005672;28;20636;-81
2023/09/16 12:37:27;;;;;;;;;;;;;;;;;;5008567;28;20465;-81
2023/09/16 12:39:56;;;;;;;;;;;;;;;;;;5006256;28;19959;-83
2023/09/16 12:42:25;;;;;;;;;;;;;;;;;;5014378;28;20235;-82
2023/09/16 12:44:52;;;;;;;;;;;;;;;;;;5010882;28;20007;-87
2023/09/16 12:47:19;;;;;;;;;;;;;;;;;;5025007;28;19945;-81
2023/09/16 12:49:45;;;;;;;;;;;;;;;;;;5012806;28;19928;-87
2023/09/16 12:52:11;;;;;;;;;;;;;;;;;;5008812;28;20436;-79
2023/09/16 12:54:46;;;;;;;;;;;;;;;;;;5010243;28;19917;-85
2023/09/16 12:57:12;;;;;;;;;;;;;;;;;;5009530;28;19920;-80
2023/09/16 12:59:39;;;;;;;;;;;;;;;;;;5013731;28;20365;-82
2023/09/16 13:02:05;;;;;;;;;;;;;;;;;;5005459;28;19909;-82
2023/09/16 13:04:32;;;;;;;;;;;;;;;;;;5010436;28;20012;-83
2023/09/16 13:06:59;;;;;;;;;;;;;;;;;;5010886;28;19913;-82
2023/09/16 13:09:30;;;;;;;;;;;;;;;;;;5014732;28;19910;-80
2023/09/16 13:11:57;;;;;;;;;;;;;;;;;;4997961;28;20415;-93
2023/09/16 13:14:23;;;;;;;;;;;;;;;;;;5007310;28;19924;-87
2023/09/16 13:16:49;;;;;;;;;;;;;;;;;;5018105;28;19919;-84
2023/09/16 13:19:20;;;;;;;;;;;;;;;;;;5019278;28;19963;-84
2023/09/16 13:21:47;;;;;;;;;;;;;;;;;;5032338;28;19917;-89
2023/09/16 13:24:13;;;;;;;;;;;;;;;;;;5015154;28;19913;-81
2023/09/16 13:26:40;;;;;;;;;;;;;;;;;;5008532;28;19913;-84
2023/09/16 13:29:06;;;;;;;;;;;;;;;;;;5012696;28;20330;-82
2023/09/16 13:31:32;;;;;;;;;;;;;;;;;;5010343;28;19924;-83
2023/09/16 13:34:04;;;;;;;;;;;;;;;;;;5009932;28;19913;-84
2023/09/16 13:36:31;;;;;;;;;;;;;;;;;;5005908;28;19909;-83
2023/09/16 13:41:56;;;;;;;;;;;;;;;;;;5017683;28;20007;-84
2023/09/16 13:44:23;;;;;;;;;;;;;;;;;;5003053;28;20004;-83
2023/09/16 13:47:00;;;;;;;;;;;;;;;;;;5009604;28;20045;-84
2023/09/16 13:49:26;;;;;;;;;;;;;;;;;;5001453;28;19929;-83
2023/09/16 13:57:30;;;;;;;;;;;;;;;;;;5019076;28;19927;-84
2023/09/16 14:00:10;;;;;;;;;;;;;;;;;;5000086;28;19913;-85
2023/09/16 14:02:36;;;;;;;;;;;;;;;;;;5019486;28;20427;-83
2023/09/16 14:05:02;;;;;;;;;;;;;;;;;;5008395;28;20035;-84
2023/09/16 14:07:28;;;;;;;;;;;;;;;;;;5003490;28;19936;-83
2023/09/16 14:09:54;;;;;;;;;;;;;;;;;;5019432;28;19909;-82
2023/09/16 14:12:19;;;;;;;;;;;;;;;;;;5017112;28;19909;-83
2023/09/16 14:14:45;;;;;;;;;;;;;;;;;;5013207;28;19985;-83
2023/09/16 14:17:11;;;;;;;;;;;;;;;;;;5009118;28;20273;-82
2023/09/16 14:19:37;;;;;;;;;;;;;;;;;;5006254;28;19917;-82
2023/09/16 14:22:03;;;;;;;;;;;;;;;;;;5011878;28;19913;-83
2023/09/16 14:24:29;;;;;;;;;;;;;;;;;;5002815;28;20293;-83
2023/09/16 14:26:56;;;;;;;;;;;;;;;;;;5010546;28;20012;-83
2023/09/16 14:29:22;;;;;;;;;;;;;;;;;;5001454;28;19916;-83
2023/09/16 14:31:48;;;;;;;;;;;;;;;;;;5011244;28;19943;-82
2023/09/16 14:34:14;;;;;;;;;;;;;;;;;;5007745;28;19935;-82
2023/09/16 14:36:40;;;;;;;;;;;;;;;;;;5013988;28;19920;-81
2023/09/16 14:39:06;;;;;;;;;;;;;;;;;;5011679;28;19921;-81
2023/09/16 14:41:32;;;;;;;;;;;;;;;;;;5010898;28;19913;-84
2023/09/16 14:43:58;;;;;;;;;;;;;;;;;;5005652;28;19913;-83
2023/09/16 14:46:25;;;;;;;;;;;;;;;;;;5019304;28;20284;-82
2023/09/16 14:48:51;;;;;;;;;;;;;;;;;;5015383;28;20363;-83
2023/09/16 14:51:17;;;;;;;;;;;;;;;;;;5011129;28;19913;-83
2023/09/16 14:53:42;;;;;;;;;;;;;;;;;;5013449;28;19921;-83
2023/09/16 14:56:08;;;;;;;;;;;;;;;;;;5009994;28;19917;-84
2023/09/16 14:58:34;;;;;;;;;;;;;;;;;;5005589;28;19936;-83
2023/09/16 15:01:03;;;;;;;;;;;;;;;;;;5013192;28;19914;-83
2023/09/16 15:03:29;;;;;;;;;;;;;;;;;;5025652;28;19913;-82
2023/09/16 15:05:55;;;;;;;;;;;;;;;;;;5007456;28;20008;-83
2023/09/16 15:08:21;;;;;;;;;;;;;;;;;;5015826;28;20377;-82
2023/09/16 15:10:49;;;;;;;;;;;;;;;;;;5019882;28;20284;-83
2023/09/16 15:13:15;;;;;;;;;;;;;;;;;;5016377;28;20000;-82
2023/09/16 15:15:41;;;;;;;;;;;;;;;;;;4999710;28;20661;-83
2023/09/16 15:18:07;;;;;;;;;;;;;;;;;;5012675;28;19917;-84
2023/09/16 15:20:32;;;;;;;;;;;;;;;;;;5008857;28;19913;-84
2023/09/16 15:22:59;;;;;;;;;;;;;;;;;;5004845;28;20117;-82
2023/09/16 15:25:25;;;;;;;;;;;;;;;;;;5015253;28;19916;-83
2023/09/16 15:27:50;;;;;;;;;;;;;;;;;;5013362;28;19909;-83
2023/09/16 15:30:16;;;;;;;;;;;;;;;;;;5010568;28;20136;-82
2023/09/16 15:32:42;;;;;;;;;;;;;;;;;;5012642;28;19913;-82
2023/09/16 15:35:08;;;;;;;;;;;;;;;;;;5018317;28;19913;-82
2023/09/16 15:37:34;;;;;;;;;;;;;;;;;;5015715;28;19964;-83
2023/09/16 15:40:00;;;;;;;;;;;;;;;;;;5015546;28;19917;-83
2023/09/16 15:42:26;;;;;;;;;;;;;;;;;;5008240;28;19928;-84
2023/09/16 15:44:54;;;;;;;;;;;;;;;;;;4999729;28;19913;-84
2023/09/16 15:47:20;;;;;;;;;;;;;;;;;;5010818;28;19996;-84
2023/09/16 15:49:46;;;;;;;;;;;;;;;;;;5013661;28;20352;-83
2023/09/16 15:52:12;;;;;;;;;;;;;;;;;;5017553;28;19917;-83
2023/09/16 15:54:38;;;;;;;;;;;;;;;;;;5013572;28;20245;-82
2023/09/16 15:57:04;;;;;;;;;;;;;;;;;;5004284;28;20258;-83
2023/09/16 15:59:29;;;;;;;;;;;;;;;;;;5010682;28;19928;-82
2023/09/16 16:01:55;;;;;;;;;;;;;;;;;;5004436;28;19936;-82
2023/09/16 16:04:21;;;;;;;;;;;;;;;;;;5002013;28;19909;-83
2023/09/16 16:06:47;;;;;;;;;;;;;;;;;;4997581;28;20568;-82
2023/09/16 16:09:13;;;;;;;;;;;;;;;;;;5008649;28;19909;-83
2023/09/16 16:11:39;;;;;;;;;;;;;;;;;;4998207;28;19910;-82
2023/09/16 16:14:06;;;;;;;;;;;;;;;;;;5005752;28;19939;-83
2023/09/16 16:16:33;;;;;;;;;;;;;;;;;;5026855;28;19913;-82
2023/09/16 16:18:59;;;;;;;;;;;;;;;;;;5021621;28;19917;-83
2023/09/16 16:21:25;;;;;;;;;;;;;;;;;;5013528;28;19913;-83
2023/09/16 16:23:51;;;;;;;;;;;;;;;;;;5011282;28;20899;-83
2023/09/16 16:26:18;;;;;;;;;;;;;;;;;;5008848;28;20005;-83
2023/09/16 16:28:44;;;;;;;;;;;;;;;;;;5013381;28;19917;-83
2023/09/16 16:31:10;;;;;;;;;;;;;;;;;;5014517;28;19940;-83
2023/09/16 16:33:36;;;;;;;;;;;;;;;;;;5008883;28;19920;-84
2023/09/16 16:36:03;;;;;;;;;;;;;;;;;;5004896;28;19955;-84
2023/09/16 16:38:28;;;;;;;;;;;;;;;;;;5014781;28;19909;-84
2023/09/16 16:40:54;;;;;;;;;;;;;;;;;;5014256;28;19909;-83
2023/09/16 16:43:20;;;;;;;;;;;;;;;;;;4999301;28;20366;-83
2023/09/16 16:45:47;;;;;;;;;;;;;;;;;;5009987;28;19913;-84
2023/09/16 16:48:13;;;;;;;;;;;;;;;;;;5002184;28;19917;-84